Time;durP1;ratioP1;P1;durP2;ratioP2;P2;SDS_P1;SDS_P2;PMS_P1;PMS_P2;Temp;Humidity;BMP_temperature;BMP_pressure;BME280_temperature;BME280_humidity;BME280_pressure;Samples;Min_cycle;Max_cycle;Signal;HPM_P1;HPM_P2
2022/07/02 00:02:17;;;;;;;5.00;1.20;;;20.80;65.60;;;;;;5002881;28;20045;-62
2022/07/02 00:04:46;;;;;;;4.10;0.80;;;20.80;65.60;;;;;;5003100;28;20022;-62
2022/07/02 00:07:12;;;;;;;4.35;0.93;;;20.80;65.80;;;;;;5005226;28;20720;-62
2022/07/02 00:09:37;;;;;;;3.65;0.90;;;20.80;65.80;;;;;;5022251;28;20037;-62
2022/07/02 00:12:03;;;;;;;5.22;1.05;;;20.80;65.80;;;;;;5002891;28;20439;-62
2022/07/02 00:14:29;;;;;;;2.50;0.80;;;20.80;65.80;;;;;;5001614;28;20439;-62
2022/07/02 00:16:55;;;;;;;4.80;1.17;;;20.80;66.00;;;;;;5006198;28;20502;-62
2022/07/02 00:19:21;;;;;;;2.70;0.98;;;20.80;65.80;;;;;;5005899;28;20132;-62
2022/07/02 00:21:47;;;;;;;4.38;1.00;;;20.80;65.80;;;;;;5007001;28;20033;-62
2022/07/02 00:24:13;;;;;;;4.40;1.00;;;20.80;65.90;;;;;;5019133;28;20053;-62
2022/07/02 00:26:39;;;;;;;3.83;1.25;;;20.70;65.90;;;;;;5005991;28;20026;-62
2022/07/02 00:29:21;;;;;;;4.05;0.90;;;20.70;65.80;;;;;;5003401;28;20497;-62
2022/07/02 00:31:47;;;;;;;2.97;0.75;;;20.70;65.80;;;;;;5004391;28;20037;-62
2022/07/02 00:34:13;;;;;;;3.05;0.88;;;20.70;65.80;;;;;;4987985;28;21444;-62
2022/07/02 00:36:38;;;;;;;3.15;0.88;;;20.70;65.90;;;;;;5002795;28;20026;-62
2022/07/02 00:39:04;;;;;;;6.57;1.10;;;20.70;66.00;;;;;;5001060;28;20034;-62
2022/07/02 00:41:30;;;;;;;4.20;1.25;;;20.70;66.10;;;;;;5004140;28;20034;-62
2022/07/02 00:43:55;;;;;;;2.47;0.90;;;20.70;66.10;;;;;;4988508;28;20042;-62
2022/07/02 00:46:21;;;;;;;3.72;1.00;;;20.70;66.30;;;;;;5004234;28;20029;-62
2022/07/02 00:48:47;;;;;;;3.92;0.80;;;20.70;66.10;;;;;;5020382;28;21454;-62
2022/07/02 00:51:12;;;;;;;3.20;0.80;;;20.60;66.10;;;;;;5004628;28;20026;-62
2022/07/02 00:53:38;;;;;;;3.65;0.93;;;20.60;66.20;;;;;;5006217;28;20034;-62
2022/07/02 00:56:04;;;;;;;2.15;0.85;;;20.70;66.10;;;;;;5001858;28;20029;-62
2022/07/02 00:58:31;;;;;;;4.75;1.00;;;20.60;66.10;;;;;;5005172;28;20041;-62
2022/07/02 01:00:57;;;;;;;5.03;1.13;;;20.60;66.20;;;;;;5005044;28;20521;-62
2022/07/02 01:03:23;;;;;;;4.10;0.90;;;20.60;66.30;;;;;;5017489;28;20029;-62
2022/07/02 01:05:48;;;;;;;2.80;0.77;;;20.60;66.30;;;;;;5020387;28;20556;-62
2022/07/02 01:11:00;;;;;;;4.80;0.90;;;20.60;66.50;;;;;;5017073;28;20176;-62
2022/07/02 01:13:25;;;;;;;2.72;0.98;;;20.60;66.40;;;;;;5003413;28;20816;-62
2022/07/02 01:15:51;;;;;;;2.15;0.90;;;20.60;66.40;;;;;;5004282;28;20505;-62
2022/07/02 01:18:19;;;;;;;2.88;0.90;;;20.60;66.30;;;;;;5005702;28;20120;-62
2022/07/02 01:20:45;;;;;;;3.72;0.80;;;20.60;66.40;;;;;;5004329;28;20038;-62
2022/07/02 01:23:11;;;;;;;3.05;0.90;;;20.60;66.40;;;;;;5003365;28;20025;-62
2022/07/02 01:25:37;;;;;;;3.85;1.00;;;20.60;66.30;;;;;;5005202;28;20040;-62
2022/07/02 01:28:03;;;;;;;2.92;1.05;;;20.60;66.40;;;;;;5002646;28;20107;-62
2022/07/02 01:30:28;;;;;;;1.73;0.77;;;20.60;66.40;;;;;;5003465;28;20083;-62
2022/07/02 01:32:54;;;;;;;5.85;1.10;;;20.50;66.40;;;;;;5005171;28;20045;-62
2022/07/02 01:35:20;;;;;;;3.60;1.10;;;20.50;66.30;;;;;;5001158;28;20018;-62
2022/07/02 01:37:45;;;;;;;2.17;1.02;;;20.50;66.50;;;;;;5003393;28;20088;-62
2022/07/02 01:40:11;;;;;;;2.80;0.70;;;20.50;66.50;;;;;;5002869;28;20026;-62
2022/07/02 01:42:37;;;;;;;2.92;0.80;;;20.50;66.50;;;;;;5003190;28;20072;-62
2022/07/02 01:45:04;;;;;;;3.10;0.73;;;20.50;66.50;;;;;;5002207;28;20042;-62
2022/07/02 01:47:29;;;;;;;3.00;0.70;;;20.50;66.50;;;;;;5003657;28;20029;-62
2022/07/02 01:49:55;;;;;;;3.55;0.70;;;20.50;66.50;;;;;;5003438;28;20033;-62
2022/07/02 01:52:21;;;;;;;2.42;0.60;;;20.50;66.50;;;;;;5003913;28;20042;-62
2022/07/02 01:54:46;;;;;;;2.05;0.70;;;20.50;66.50;;;;;;5004524;28;20038;-62
2022/07/02 01:57:15;;;;;;;2.40;0.80;;;20.50;66.50;;;;;;5002645;28;20372;-62
2022/07/02 01:59:40;;;;;;;1.60;0.77;;;20.40;66.50;;;;;;5004245;28;20128;-62
2022/07/02 02:02:06;;;;;;;2.90;0.73;;;20.50;66.60;;;;;;5005960;28;20140;-62
2022/07/02 02:04:32;;;;;;;3.03;0.85;;;20.40;66.50;;;;;;5004447;28;20048;-61
2022/07/02 02:06:58;;;;;;;4.20;0.95;;;20.40;66.50;;;;;;5003543;28;20031;-62
2022/07/02 02:09:24;;;;;;;2.30;0.93;;;20.40;66.50;;;;;;5006224;28;20103;-62
2022/07/02 02:11:49;;;;;;;4.20;1.02;;;20.40;66.60;;;;;;5003999;28;20018;-61
2022/07/02 02:14:15;;;;;;;2.00;0.75;;;20.40;66.60;;;;;;5005454;28;20049;-62
2022/07/02 02:16:40;;;;;;;3.13;0.85;;;20.40;66.60;;;;;;5005707;28;20042;-62
2022/07/02 02:19:06;;;;;;;2.15;0.80;;;20.40;66.60;;;;;;4999972;28;21273;-62
2022/07/02 02:21:32;;;;;;;1.48;0.80;;;20.40;66.70;;;;;;5004536;28;20030;-62
2022/07/02 02:23:58;;;;;;;3.53;0.80;;;20.40;66.70;;;;;;5005461;28;20034;-62
2022/07/02 02:26:24;;;;;;;3.95;0.90;;;20.40;66.70;;;;;;5019058;28;20552;-62
2022/07/02 02:28:50;;;;;;;2.63;0.77;;;20.40;66.60;;;;;;5018604;28;20034;-62
2022/07/02 02:31:15;;;;;;;1.45;0.70;;;20.30;66.60;;;;;;5006762;28;20029;-62
2022/07/02 02:33:41;;;;;;;1.50;0.68;;;20.40;66.60;;;;;;5019444;28;20535;-62
2022/07/02 02:36:07;;;;;;;1.85;0.70;;;20.40;66.70;;;;;;5004612;28;20144;-62
2022/07/02 02:38:36;;;;;;;1.83;0.73;;;20.30;66.70;;;;;;5003667;28;20113;-62
2022/07/02 02:41:05;;;;;;;2.08;0.80;;;20.30;66.70;;;;;;5004134;28;20503;-62
2022/07/02 02:43:32;;;;;;;2.65;0.80;;;20.30;66.60;;;;;;5002339;28;20036;-62
2022/07/02 02:45:58;;;;;;;2.00;0.73;;;20.30;66.70;;;;;;5002638;28;20410;-62
2022/07/02 02:48:23;;;;;;;1.90;0.75;;;20.30;66.70;;;;;;5002354;28;20038;-62
2022/07/02 02:50:49;;;;;;;1.75;0.90;;;20.30;66.70;;;;;;5000497;28;20022;-62
2022/07/02 02:53:15;;;;;;;2.30;0.70;;;20.30;66.60;;;;;;5005102;28;20038;-62
2022/07/02 02:55:40;;;;;;;2.42;0.77;;;20.30;66.70;;;;;;5001160;28;20545;-62
2022/07/02 02:58:06;;;;;;;2.72;0.80;;;20.30;66.70;;;;;;5004404;28;20037;-62
2022/07/02 03:00:32;;;;;;;2.33;0.70;;;20.30;66.80;;;;;;5006096;28;20413;-62
2022/07/02 03:02:57;;;;;;;2.40;0.80;;;20.30;66.80;;;;;;5009290;28;20572;-62
2022/07/02 03:05:23;;;;;;;1.80;0.65;;;20.20;66.70;;;;;;5007203;28;20022;-62
2022/07/02 03:07:48;;;;;;;1.88;0.77;;;20.20;66.70;;;;;;5009009;28;20036;-61
2022/07/02 03:10:14;;;;;;;1.25;0.70;;;20.20;66.70;;;;;;5006826;28;20030;-64
2022/07/02 03:12:40;;;;;;;2.05;0.73;;;20.20;66.70;;;;;;5007737;28;20030;-62
2022/07/02 03:15:06;;;;;;;1.70;0.85;;;20.20;66.60;;;;;;5005901;28;20095;-62
2022/07/02 03:17:32;;;;;;;1.20;0.68;;;20.20;66.70;;;;;;5003757;28;20042;-62
2022/07/02 03:19:58;;;;;;;1.75;0.55;;;20.20;66.70;;;;;;5004357;28;20125;-62
2022/07/02 03:22:23;;;;;;;2.35;0.80;;;20.20;66.70;;;;;;5010000;28;20569;-61
2022/07/02 03:24:49;;;;;;;2.05;0.63;;;20.20;66.70;;;;;;5002865;28;20031;-62
2022/07/02 03:27:14;;;;;;;3.13;0.80;;;20.20;66.70;;;;;;5005817;28;20052;-61
2022/07/02 03:29:40;;;;;;;1.83;0.80;;;20.20;66.70;;;;;;5006708;28;20056;-62
2022/07/02 03:32:06;;;;;;;2.65;0.80;;;20.20;66.80;;;;;;5004857;28;20505;-62
2022/07/02 03:34:32;;;;;;;2.17;0.70;;;20.20;66.80;;;;;;5006134;28;20053;-61
2022/07/02 03:36:57;;;;;;;1.40;0.70;;;20.20;66.80;;;;;;5005968;28;20398;-62
2022/07/02 03:39:23;;;;;;;2.42;0.60;;;20.10;66.70;;;;;;5007977;28;20029;-62
2022/07/02 03:41:48;;;;;;;2.10;0.70;;;20.10;66.70;;;;;;5006459;28;20029;-62
2022/07/02 03:44:14;;;;;;;1.23;0.80;;;20.10;66.70;;;;;;5006743;28;20033;-62
2022/07/02 03:46:40;;;;;;;1.67;0.60;;;20.10;66.70;;;;;;5005517;28;20069;-62
2022/07/02 03:49:06;;;;;;;1.38;0.55;;;20.10;66.80;;;;;;5007416;28;20502;-62
2022/07/02 03:51:31;;;;;;;0.80;0.57;;;20.10;66.70;;;;;;5004454;28;20113;-61
2022/07/02 03:53:57;;;;;;;1.08;0.63;;;20.10;66.70;;;;;;5006844;28;20091;-62
2022/07/02 03:56:22;;;;;;;2.67;0.77;;;20.10;66.70;;;;;;5007458;28;20034;-62
2022/07/02 03:58:48;;;;;;;2.22;0.93;;;20.10;66.80;;;;;;5005912;28;20042;-62
2022/07/02 04:01:14;;;;;;;2.83;0.80;;;20.10;66.80;;;;;;5005525;28;20560;-61
2022/07/02 04:03:39;;;;;;;1.80;0.70;;;20.10;66.70;;;;;;5005673;28;20065;-61
2022/07/02 04:06:05;;;;;;;2.85;0.60;;;20.10;66.70;;;;;;5005307;28;20030;-62
2022/07/02 04:08:30;;;;;;;1.30;0.70;;;20.10;66.70;;;;;;5006669;28;20030;-62
2022/07/02 04:10:56;;;;;;;1.88;0.70;;;20.00;66.70;;;;;;5007002;28;20502;-62
2022/07/02 04:13:22;;;;;;;1.90;0.82;;;20.00;66.70;;;;;;5007717;28;20050;-61
2022/07/02 04:15:47;;;;;;;2.38;0.60;;;20.00;66.70;;;;;;5006934;28;20050;-61
2022/07/02 04:18:13;;;;;;;2.47;0.77;;;20.00;66.70;;;;;;5006467;28;20080;-62
2022/07/02 04:20:39;;;;;;;1.00;0.63;;;20.00;66.70;;;;;;5006395;28;20022;-62
2022/07/02 04:23:04;;;;;;;1.95;0.70;;;20.00;66.70;;;;;;5007525;28;20076;-62
2022/07/02 04:25:30;;;;;;;1.20;0.65;;;20.00;66.70;;;;;;5006383;28;20030;-62
2022/07/02 04:27:56;;;;;;;2.63;0.80;;;20.00;66.70;;;;;;5006368;28;20033;-62
2022/07/02 04:30:21;;;;;;;1.48;0.70;;;20.00;66.70;;;;;;5005149;28;20112;-61
2022/07/02 04:32:47;;;;;;;1.30;0.50;;;20.00;66.70;;;;;;5004394;28;20076;-61
2022/07/02 04:35:13;;;;;;;1.27;0.60;;;20.00;66.70;;;;;;5004109;28;20407;-62
2022/07/02 04:37:38;;;;;;;1.80;0.70;;;20.00;66.70;;;;;;5006964;28;20032;-62
2022/07/02 04:40:06;;;;;;;2.00;0.65;;;20.00;66.70;;;;;;5006230;28;20033;-62
2022/07/02 04:42:32;;;;;;;1.92;0.90;;;20.00;66.70;;;;;;5005991;28;20036;-62
2022/07/02 04:44:57;;;;;;;1.88;0.60;;;20.00;66.70;;;;;;5004367;28;20036;-62
2022/07/02 04:47:23;;;;;;;1.10;0.70;;;20.00;66.70;;;;;;5001341;28;20032;-61
2022/07/02 04:49:49;;;;;;;1.60;0.68;;;19.90;66.70;;;;;;5005348;28;20112;-61
2022/07/02 04:52:14;;;;;;;2.28;0.93;;;20.00;66.70;;;;;;5004169;28;20116;-62
2022/07/02 04:54:40;;;;;;;2.08;0.60;;;19.90;66.70;;;;;;5006354;28;20417;-61
2022/07/02 04:57:06;;;;;;;2.42;0.68;;;19.90;66.60;;;;;;5004612;28;20025;-61
2022/07/02 04:59:31;;;;;;;2.05;0.63;;;19.90;66.70;;;;;;5006298;28;20030;-61
2022/07/02 05:01:57;;;;;;;2.00;0.80;;;19.90;66.70;;;;;;5004369;28;20482;-61
2022/07/02 05:04:22;;;;;;;2.95;0.88;;;19.90;66.60;;;;;;5004777;28;20036;-61
2022/07/02 05:06:48;;;;;;;1.63;0.73;;;19.90;66.60;;;;;;5021896;28;20052;-61
2022/07/02 05:09:14;;;;;;;1.70;0.60;;;19.90;66.70;;;;;;5004735;28;20037;-62
2022/07/02 05:11:39;;;;;;;0.88;0.60;;;19.90;66.70;;;;;;5003857;28;20593;-61
2022/07/02 05:14:05;;;;;;;1.48;0.65;;;19.90;66.70;;;;;;5004635;28;20585;-61
2022/07/02 05:16:31;;;;;;;1.55;0.70;;;19.90;66.60;;;;;;5004644;28;20465;-62
2022/07/02 05:18:56;;;;;;;0.98;0.60;;;19.90;66.70;;;;;;5003927;28;20112;-62
2022/07/02 05:21:22;;;;;;;1.27;0.60;;;19.80;66.70;;;;;;5006925;28;20508;-61
2022/07/02 05:23:47;;;;;;;2.13;0.85;;;19.80;66.60;;;;;;5002497;28;20112;-61
2022/07/02 05:26:13;;;;;;;1.95;0.68;;;19.80;66.60;;;;;;5004430;28;20113;-61
2022/07/02 05:28:39;;;;;;;1.48;0.43;;;19.80;66.60;;;;;;5004877;28;20116;-62
2022/07/02 05:31:04;;;;;;;1.00;0.50;;;19.80;66.70;;;;;;5003141;28;20379;-61
2022/07/02 05:33:30;;;;;;;1.15;0.50;;;19.80;66.60;;;;;;5003825;28;20045;-62
2022/07/02 05:35:56;;;;;;;0.73;0.50;;;19.80;66.70;;;;;;5003581;28;20379;-62
2022/07/02 05:38:21;;;;;;;2.03;0.80;;;19.80;66.60;;;;;;5004851;28;20137;-62
2022/07/02 05:40:47;;;;;;;2.20;0.63;;;19.80;66.70;;;;;;5005094;28;20088;-61
2022/07/02 05:43:13;;;;;;;2.13;0.50;;;19.80;66.60;;;;;;5004442;28;20030;-62
2022/07/02 05:45:38;;;;;;;0.80;0.63;;;19.80;66.70;;;;;;5002843;28;20513;-62
2022/07/02 05:48:04;;;;;;;2.20;0.80;;;19.80;66.60;;;;;;5003185;28;20124;-62
2022/07/02 05:50:30;;;;;;;1.05;0.50;;;19.80;66.60;;;;;;5003502;28;20045;-62
2022/07/02 05:52:55;;;;;;;1.80;0.65;;;19.70;66.60;;;;;;5002766;28;20065;-62
2022/07/02 05:55:21;;;;;;;1.30;0.80;;;19.80;66.70;;;;;;5004033;28;20402;-62
2022/07/02 05:57:47;;;;;;;1.15;0.60;;;19.80;66.60;;;;;;5020973;28;20459;-61
2022/07/02 06:00:13;;;;;;;1.10;0.50;;;19.80;66.70;;;;;;5000021;28;20529;-62
2022/07/02 06:02:39;;;;;;;1.05;0.50;;;19.80;66.70;;;;;;5004743;28;20053;-61
2022/07/02 06:07:49;;;;;;;1.73;0.68;;;19.80;66.70;;;;;;5001472;28;20045;-62
2022/07/02 06:10:18;;;;;;;1.38;0.57;;;19.70;66.60;;;;;;5005793;28;20027;-62
2022/07/02 06:12:46;;;;;;;1.52;0.57;;;19.70;66.70;;;;;;5005671;28;20041;-62
2022/07/02 06:15:12;;;;;;;2.08;0.63;;;19.70;66.70;;;;;;5005854;28;20033;-62
2022/07/02 06:17:40;;;;;;;1.42;0.70;;;19.70;66.60;;;;;;5020324;28;20077;-62
2022/07/02 06:20:06;;;;;;;0.77;0.57;;;19.70;66.70;;;;;;5005193;28;20061;-62
2022/07/02 06:22:32;;;;;;;0.95;0.50;;;19.70;66.70;;;;;;5002099;28;20076;-62
2022/07/02 06:24:57;;;;;;;0.63;0.57;;;19.70;67.70;;;;;;5005413;28;20026;-62
2022/07/02 06:27:23;;;;;;;1.65;0.68;;;19.70;66.70;;;;;;5005740;28;20025;-62
2022/07/02 06:29:49;;;;;;;1.80;0.80;;;19.70;66.70;;;;;;5003677;28;20018;-62
2022/07/02 06:32:18;;;;;;;1.90;0.73;;;19.70;66.70;;;;;;5004732;28;20037;-62
2022/07/02 06:34:44;;;;;;;0.80;0.52;;;19.70;66.70;;;;;;5006582;28;20041;-62
2022/07/02 06:37:10;;;;;;;2.17;0.60;;;19.70;66.70;;;;;;5005426;28;20026;-62
2022/07/02 06:39:36;;;;;;;1.05;0.57;;;19.70;66.70;;;;;;5004215;28;20069;-62
2022/07/02 06:42:20;;;;;;;1.30;0.52;;;19.70;66.80;;;;;;5005413;28;20101;-61
2022/07/02 06:44:50;;;;;;;1.35;0.52;;;19.70;66.80;;;;;;5000082;28;20102;-62
2022/07/02 06:47:16;;;;;;;1.13;0.60;;;19.70;66.80;;;;;;5002702;28;20028;-61
2022/07/02 06:49:42;;;;;;;0.50;0.47;;;19.70;66.90;;;;;;5003562;28;20618;-62
2022/07/02 06:52:08;;;;;;;0.73;0.45;;;19.70;66.90;;;;;;5004026;28;20097;-62
2022/07/02 06:54:34;;;;;;;1.25;0.70;;;19.70;66.80;;;;;;5004474;28;20034;-62
2022/07/02 06:57:00;;;;;;;2.05;0.70;;;19.70;66.80;;;;;;5003519;28;20046;-61
2022/07/02 06:59:25;;;;;;;1.95;0.70;;;19.70;66.80;;;;;;5003431;28;20049;-62
2022/07/02 07:01:51;;;;;;;1.83;0.63;;;19.70;66.80;;;;;;5018838;28;20093;-62
2022/07/02 07:04:17;;;;;;;0.75;0.40;;;19.70;66.80;;;;;;5005151;28;20030;-62
2022/07/02 07:06:44;;;;;;;1.10;0.60;;;19.60;66.80;;;;;;5002130;28;20026;-61
2022/07/02 07:09:09;;;;;;;2.08;0.68;;;19.70;66.90;;;;;;5003329;28;20113;-61
2022/07/02 07:11:35;;;;;;;2.75;0.77;;;19.70;67.20;;;;;;5004161;28;20097;-61
2022/07/02 07:14:03;;;;;;;4.03;0.90;;;19.70;66.80;;;;;;5000163;28;20517;-61
2022/07/02 07:16:29;;;;;;;4.07;1.00;;;19.60;66.20;;;;;;5000857;28;20081;-61
2022/07/02 07:21:20;;;;;;;4.28;1.30;;;19.60;65.90;;;;;;5005708;28;20077;-61
2022/07/02 07:23:46;;;;;;;4.72;1.15;;;19.60;65.90;;;;;;5005082;28;20034;-61
2022/07/02 07:26:12;;;;;;;2.42;0.90;;;19.60;65.80;;;;;;4999329;28;20036;-62
2022/07/02 07:28:38;;;;;;;5.68;1.00;;;19.70;66.10;;;;;;5016861;28;20045;-60
2022/07/02 07:31:03;;;;;;;5.75;1.05;;;19.70;66.10;;;;;;5003186;28;20030;-60
2022/07/02 07:33:29;;;;;;;5.72;1.10;;;19.80;66.20;;;;;;4996961;28;20046;-62
2022/07/02 07:35:55;;;;;;;8.13;1.42;;;19.90;66.50;;;;;;4997134;28;20030;-61
2022/07/02 07:38:22;;;;;;;6.53;1.08;;;19.90;66.30;;;;;;4999895;28;20509;-61
2022/07/02 07:40:47;;;;;;;3.10;0.82;;;19.90;66.00;;;;;;5001718;28;20030;-61
2022/07/02 07:43:13;;;;;;;4.40;1.00;;;19.90;66.00;;;;;;4997408;28;20022;-61
2022/07/02 07:45:39;;;;;;;5.43;1.20;;;19.90;66.00;;;;;;4998967;28;20030;-61
2022/07/02 07:48:04;;;;;;;3.53;1.08;;;19.90;66.60;;;;;;5005053;28;20502;-61
2022/07/02 07:50:30;;;;;;;3.10;0.90;;;19.90;66.30;;;;;;5005422;28;20032;-61
2022/07/02 07:52:55;;;;;;;3.88;1.10;;;20.00;66.30;;;;;;5004938;28;20674;-61
2022/07/02 07:55:21;;;;;;;4.28;1.00;;;19.90;66.40;;;;;;5003651;28;20030;-61
2022/07/02 07:57:47;;;;;;;6.55;1.02;;;20.00;66.50;;;;;;5007057;28;20030;-61
2022/07/02 08:00:13;;;;;;;3.88;1.13;;;20.00;67.80;;;;;;5006781;28;20033;-61
2022/07/02 08:02:39;;;;;;;6.72;1.40;;;20.00;67.20;;;;;;5008324;28;20077;-61
2022/07/02 08:05:05;;;;;;;8.68;1.45;;;20.00;67.00;;;;;;5008271;28;20125;-61
2022/07/02 08:07:37;;;;;;;4.95;1.00;;;20.00;67.00;;;;;;5008945;28;20112;-61
2022/07/02 08:10:07;;;;;;;7.20;1.40;;;20.00;66.80;;;;;;5008769;28;20462;-61
2022/07/02 08:12:33;;;;;;;8.82;1.50;;;20.00;66.80;;;;;;5008119;28;20038;-61
2022/07/02 08:14:59;;;;;;;4.50;0.95;;;20.00;66.80;;;;;;5007927;28;20561;-61
2022/07/02 08:17:26;;;;;;;4.45;1.20;;;20.10;66.80;;;;;;5007287;28;20169;-61
2022/07/02 08:19:52;;;;;;;6.32;1.33;;;20.10;66.70;;;;;;5005135;28;20052;-61
2022/07/02 08:22:19;;;;;;;5.82;1.42;;;20.10;66.70;;;;;;5008169;28;20033;-61
2022/07/02 08:24:45;;;;;;;6.25;1.40;;;20.10;66.70;;;;;;5008370;28;20045;-62
2022/07/02 08:27:10;;;;;;;6.07;1.45;;;20.10;66.70;;;;;;5007183;28;20021;-61
2022/07/02 08:29:36;;;;;;;3.97;1.40;;;20.10;66.70;;;;;;5008890;28;20372;-61
2022/07/02 08:32:04;;;;;;;5.72;1.10;;;20.10;66.70;;;;;;5006922;28;20518;-61
2022/07/02 08:34:30;;;;;;;2.92;1.17;;;20.10;66.60;;;;;;5007050;28;20065;-61
2022/07/02 08:36:56;;;;;;;4.05;1.08;;;20.10;66.60;;;;;;5007704;28;20510;-61
2022/07/02 08:39:22;;;;;;;3.35;1.10;;;20.10;66.60;;;;;;5004978;28;20041;-61
2022/07/02 08:41:47;;;;;;;5.25;1.25;;;20.10;66.60;;;;;;5006841;28;20030;-61
2022/07/02 08:44:13;;;;;;;5.88;1.40;;;20.10;66.60;;;;;;5003614;28;20030;-61
2022/07/02 08:46:38;;;;;;;5.93;1.35;;;20.20;66.50;;;;;;5017165;28;20018;-61
2022/07/02 08:49:04;;;;;;;6.25;1.58;;;20.20;66.40;;;;;;5006014;28;20033;-61
2022/07/02 08:51:30;;;;;;;4.65;1.00;;;20.20;66.40;;;;;;5021560;28;20021;-61
2022/07/02 08:53:55;;;;;;;3.90;1.17;;;20.20;66.60;;;;;;5005718;28;20593;-61
2022/07/02 08:56:21;;;;;;;5.63;1.30;;;20.20;66.50;;;;;;4990322;28;20499;-61
2022/07/02 08:58:47;;;;;;;4.10;0.90;;;20.30;66.40;;;;;;5006617;28;20033;-62
2022/07/02 09:01:12;;;;;;;5.15;1.40;;;20.30;66.40;;;;;;5005730;28;20026;-61
2022/07/02 09:03:38;;;;;;;4.60;1.45;;;20.30;66.30;;;;;;5003873;28;20026;-61
2022/07/02 09:06:05;;;;;;;4.25;1.10;;;20.30;66.30;;;;;;5002994;28;20039;-61
2022/07/02 09:08:31;;;;;;;6.78;1.40;;;20.30;66.20;;;;;;5002990;28;20399;-61
2022/07/02 09:10:56;;;;;;;6.03;1.33;;;20.30;66.20;;;;;;4991439;28;20030;-61
2022/07/02 09:13:23;;;;;;;3.45;1.25;;;20.30;66.20;;;;;;4988732;28;20034;-61
2022/07/02 09:15:49;;;;;;;5.20;1.30;;;20.30;66.20;;;;;;5006958;28;20397;-61
2022/07/02 09:18:14;;;;;;;5.38;1.20;;;20.40;66.10;;;;;;5005441;28;20113;-61
2022/07/02 09:20:40;;;;;;;4.38;1.40;;;20.40;66.10;;;;;;5006480;28;20108;-61
2022/07/02 09:23:09;;;;;;;3.83;1.35;;;20.40;66.10;;;;;;5004966;28;20023;-61
2022/07/02 09:25:35;;;;;;;4.70;1.52;;;20.40;66.10;;;;;;5006096;28;20033;-61
2022/07/02 09:28:03;;;;;;;4.00;1.48;;;20.40;66.10;;;;;;5004254;28;20030;-61
2022/07/02 09:30:33;;;;;;;3.70;1.30;;;20.40;66.00;;;;;;5005447;28;20028;-61
2022/07/02 09:35:43;;;;;;;4.80;1.33;;;20.40;66.00;;;;;;5006008;28;20566;-61
2022/07/02 09:38:10;;;;;;;3.25;1.15;;;20.50;65.90;;;;;;5004057;28;20105;-61
2022/07/02 09:40:50;;;;;;;3.75;1.27;;;20.50;66.10;;;;;;5006427;28;20134;-61
2022/07/02 09:43:24;;;;;;;5.60;1.63;;;20.50;65.90;;;;;;5006010;28;20026;-61
2022/07/02 09:45:50;;;;;;;4.38;1.30;;;20.60;66.90;;;;;;5006026;28;20022;-61
2022/07/02 09:48:17;;;;;;;4.40;1.35;;;20.60;65.80;;;;;;5003255;28;20037;-61
2022/07/02 09:50:42;;;;;;;3.30;1.40;;;20.60;65.70;;;;;;5006109;28;20376;-61
2022/07/02 09:53:11;;;;;;;3.58;1.40;;;20.70;65.80;;;;;;5003427;28;20026;-61
2022/07/02 09:55:36;;;;;;;4.30;1.60;;;20.70;65.60;;;;;;5006030;28;20121;-61
2022/07/02 09:58:04;;;;;;;5.13;1.30;;;20.70;65.60;;;;;;5005305;28;20053;-61
2022/07/02 10:00:41;;;;;;;2.83;1.20;;;20.70;65.60;;;;;;5003685;28;20033;-61
2022/07/02 10:03:07;;;;;;;2.95;1.13;;;20.70;65.50;;;;;;5004160;28;20500;-61
2022/07/02 10:05:33;;;;;;;4.80;1.40;;;20.70;65.50;;;;;;5002208;28;20101;-61
2022/07/02 10:08:00;;;;;;;4.63;1.40;;;20.80;65.40;;;;;;5005776;28;20406;-61
2022/07/02 10:10:39;;;;;;;5.22;1.40;;;20.70;65.30;;;;;;5002066;28;20034;-61
2022/07/02 10:13:08;;;;;;;4.18;1.20;;;20.70;65.30;;;;;;5008078;28;20044;-61
2022/07/02 10:15:37;;;;;;;2.47;1.20;;;20.80;65.40;;;;;;5004121;28;20018;-61
2022/07/02 10:18:03;;;;;;;4.32;1.40;;;20.80;65.40;;;;;;5006505;28;20050;-61
2022/07/02 10:20:29;;;;;;;2.97;1.48;;;20.80;65.30;;;;;;5002908;28;20038;-61
2022/07/02 10:22:56;;;;;;;3.50;1.20;;;20.80;65.30;;;;;;5004488;28;20042;-61
2022/07/02 10:25:22;;;;;;;2.33;1.20;;;20.90;65.30;;;;;;5020469;28;20115;-61
2022/07/02 10:27:48;;;;;;;3.33;1.30;;;20.80;65.20;;;;;;5006155;28;20530;-61
2022/07/02 10:30:17;;;;;;;2.17;1.30;;;20.90;65.20;;;;;;5004295;28;20030;-61
2022/07/02 10:32:57;;;;;;;3.50;1.38;;;20.90;65.20;;;;;;5005117;28;20048;-61
2022/07/02 10:35:23;;;;;;;4.97;1.50;;;20.90;65.10;;;;;;5002227;28;20030;-61
2022/07/02 10:37:54;;;;;;;5.22;1.30;;;20.90;65.10;;;;;;5006300;28;20109;-61
2022/07/02 10:40:20;;;;;;;3.40;1.40;;;20.90;65.00;;;;;;5017090;28;21004;-61
2022/07/02 10:42:48;;;;;;;4.78;1.40;;;20.90;65.10;;;;;;5004258;28;20022;-61
2022/07/02 10:45:23;;;;;;;4.32;1.50;;;21.00;65.20;;;;;;5018644;28;20038;-61
2022/07/02 10:48:01;;;;;;;;;;;21.00;65.30;;;;;;5004910;28;20037;-61
2022/07/02 10:50:37;;;;;;;3.17;1.30;;;20.90;65.10;;;;;;5005023;28;19944;-61
2022/07/02 10:53:13;;;;;;;3.28;1.38;;;21.00;65.10;;;;;;5005461;28;20041;-61
2022/07/02 10:55:41;;;;;;;2.10;1.10;;;21.00;65.10;;;;;;5006111;28;20062;-61
2022/07/02 10:58:08;;;;;;;4.72;1.20;;;21.00;65.00;;;;;;5005729;28;20060;-61
2022/07/02 11:00:40;;;;;;;4.90;1.50;;;21.00;65.00;;;;;;5004883;28;20030;-61
2022/07/02 11:03:16;;;;;;;3.25;1.23;;;21.00;64.90;;;;;;5005842;28;20152;-61
2022/07/02 11:05:55;;;;;;;3.58;1.30;;;21.00;64.80;;;;;;5003526;28;20097;-61
2022/07/02 11:08:45;;;;;;;4.40;1.63;;;21.00;64.90;;;;;;5003376;28;20041;-61
2022/07/02 11:11:11;;;;;;;2.85;1.10;;;21.10;64.90;;;;;;5005394;28;20022;-61
2022/07/02 11:13:54;;;;;;;5.55;1.35;;;21.10;64.80;;;;;;5001340;28;20503;-61
2022/07/02 11:16:23;;;;;;;3.78;1.30;;;21.10;64.80;;;;;;5014273;28;20034;-61
2022/07/02 11:18:49;;;;;;;2.20;1.30;;;21.10;64.70;;;;;;5003886;28;20536;-61
2022/07/02 11:21:14;;;;;;;3.00;1.30;;;21.10;64.70;;;;;;5004519;28;20053;-61
2022/07/02 11:23:40;;;;;;;4.18;1.40;;;21.20;64.80;;;;;;5007904;28;20034;-61
2022/07/02 11:26:07;;;;;;;2.53;1.20;;;21.20;64.70;;;;;;5009936;28;20022;-61
2022/07/02 11:28:34;;;;;;;3.05;1.40;;;21.20;64.70;;;;;;5008586;28;20050;-61
2022/07/02 11:31:00;;;;;;;3.28;1.40;;;21.20;64.80;;;;;;5007496;28;20483;-61
2022/07/02 11:33:26;;;;;;;2.70;1.20;;;21.20;64.80;;;;;;5007674;28;20041;-61
2022/07/02 11:35:52;;;;;;;1.95;1.23;;;21.20;64.70;;;;;;5007989;28;20030;-61
2022/07/02 11:38:18;;;;;;;2.78;1.38;;;21.20;64.70;;;;;;5008035;28;20049;-61
2022/07/02 11:40:44;;;;;;;4.82;1.50;;;21.30;64.70;;;;;;5007719;28;20030;-61
2022/07/02 11:43:16;;;;;;;3.92;1.20;;;21.30;64.50;;;;;;5008374;28;20107;-61
2022/07/02 11:45:43;;;;;;;2.53;1.10;;;21.30;64.60;;;;;;5008274;28;20552;-61
2022/07/02 11:48:19;;;;;;;3.25;1.25;;;21.30;64.60;;;;;;5005482;28;20054;-62
2022/07/02 11:50:45;;;;;;;3.50;1.27;;;21.30;64.60;;;;;;5007070;28;20076;-62
2022/07/02 11:53:11;;;;;;;3.35;1.30;;;21.30;64.60;;;;;;5005879;28;20042;-61
2022/07/02 11:55:37;;;;;;;2.20;1.15;;;21.30;64.70;;;;;;5007527;28;20438;-61
2022/07/02 11:58:03;;;;;;;3.80;1.40;;;21.30;64.70;;;;;;5006887;28;20037;-61
2022/07/02 12:00:30;;;;;;;5.13;1.40;;;21.30;64.70;;;;;;5007569;28;20033;-61
2022/07/02 12:02:55;;;;;;;3.47;1.35;;;21.30;64.60;;;;;;5007973;28;20033;-61
2022/07/02 12:05:21;;;;;;;3.45;1.55;;;21.30;64.60;;;;;;5005666;28;20532;-61
2022/07/02 12:07:47;;;;;;;2.60;1.20;;;21.30;64.50;;;;;;5006270;28;20038;-61
2022/07/02 12:10:15;;;;;;;2.92;1.38;;;21.30;64.50;;;;;;5007130;28;20057;-61
2022/07/02 12:12:41;;;;;;;2.55;1.58;;;21.40;64.50;;;;;;5006545;28;20022;-61
2022/07/02 12:15:08;;;;;;;3.75;1.40;;;21.40;64.50;;;;;;5008060;28;20045;-61
2022/07/02 12:17:35;;;;;;;3.00;1.40;;;21.40;64.40;;;;;;5007164;28;20054;-62
2022/07/02 12:20:03;;;;;;;4.43;1.45;;;21.40;64.30;;;;;;5006041;28;20446;-61
2022/07/02 12:22:29;;;;;;;3.22;1.48;;;21.50;64.20;;;;;;5005782;28;20104;-61
2022/07/02 12:24:55;;;;;;;4.50;1.58;;;21.50;64.30;;;;;;5005861;28;20062;-61
2022/07/02 12:27:23;;;;;;;2.97;1.40;;;21.50;64.20;;;;;;5006058;28;20513;-61
2022/07/02 12:29:58;;;;;;;3.80;1.30;;;21.50;64.20;;;;;;5007428;28;20061;-61
2022/07/02 12:32:32;;;;;;;4.20;1.38;;;21.50;64.20;;;;;;5006914;28;20030;-61
2022/07/02 12:35:02;;;;;;;3.08;1.42;;;21.50;64.10;;;;;;5004917;28;20050;-61
2022/07/02 12:37:37;;;;;;;3.45;1.33;;;21.50;64.00;;;;;;5006974;28;20044;-61
2022/07/02 12:40:06;;;;;;;3.45;1.50;;;21.60;64.00;;;;;;5006601;28;20032;-61
2022/07/02 12:42:33;;;;;;;5.13;1.45;;;21.60;64.00;;;;;;5005399;28;20026;-61
2022/07/02 12:45:01;;;;;;;4.80;1.40;;;21.60;63.90;;;;;;5005930;28;20034;-61
2022/07/02 12:47:32;;;;;;;3.67;1.40;;;21.60;63.90;;;;;;5005689;28;20033;-61
2022/07/02 12:50:00;;;;;;;3.90;1.67;;;21.60;63.80;;;;;;5007938;28;20172;-61
2022/07/02 12:52:28;;;;;;;4.90;1.73;;;21.70;63.80;;;;;;5008259;28;20046;-61
2022/07/02 12:54:54;;;;;;;3.05;1.40;;;21.70;63.70;;;;;;5005081;28;20568;-61
2022/07/02 12:57:21;;;;;;;5.90;1.70;;;21.70;63.70;;;;;;5004543;28;20030;-62